KGOV

Grayling AAF Airport

Grayling, Michigan, USA
METAR KGOV 151933Z AUTO 28018G24KT 2 3/4SM -SN BR OVC013 M06/M07 A2962 RMK AO2 VIS 2 3/4V4 SLP051 $
Observed Flight Rules
Feb-15 @ 19:33 UTC (15 minutes ago) Instrument Flight Rules
Wind Visibility Clouds Conditions
280° at 18 knots
 Gusting to 24 knots
2 3/4 miles
  • Overcast at 1,300' AGL
  • Light Snow
  • Mist
Temperatures Readings
Current -6°C / 21°F
Dewpoint -7°C / 19°F
Humidity 93%
Altimeter 29.62" Hg
Pressure 1005.1 hPa
Elevation 353
METAR KGOV 151933Z AUTO 28018G24KT 2 3/4SM -SN BR OVC013 M06/M07 A2962 RMK AO2 VIS 2 3/4V4 SLP051 $
Observed Flight Rules
Feb-15 @ 19:33 UTC
(15 minutes ago)
IFR
Wind Visibility
280° at 18 knots
 Gusting to 24 knots
2 3/4 miles
Clouds
  • Overcast at 1,300' AGL
Conditions
  • Light Snow
  • Mist
Temperature Dewpoint
-6°C / 21°F -7°C / 19°F
Humidity Altimeter Pressure
93% 29.62" Hg 1005.1 hPa